createdAt,value
2018-09-17T00:00:23.649Z,11.50
2018-09-17T00:05:03.809Z,11.40
2018-09-17T00:09:43.780Z,11.40
2018-09-17T00:14:23.684Z,11.40
2018-09-17T00:19:04.527Z,11.30
2018-09-17T00:23:45.237Z,11.20
2018-09-17T00:28:25.029Z,11.20
2018-09-17T00:33:06.362Z,11.20
2018-09-17T00:37:47.467Z,11.20
2018-09-17T00:42:27.414Z,11.10
2018-09-17T00:47:07.544Z,10.90
2018-09-17T00:51:48.912Z,10.80
2018-09-17T00:56:29.329Z,10.80
2018-09-17T01:01:09.429Z,10.70
2018-09-17T01:05:50.181Z,10.60
2018-09-17T01:10:30.173Z,10.50
2018-09-17T01:15:10.271Z,10.40
2018-09-17T01:19:50.326Z,10.30
2018-09-17T01:24:31.639Z,10.40
2018-09-17T01:29:11.653Z,10.30
2018-09-17T01:33:51.445Z,10.20
2018-09-17T01:38:31.837Z,10.10
2018-09-17T01:43:12.006Z,10.20
2018-09-17T01:47:51.728Z,10.30
2018-09-17T01:52:31.994Z,10.20
2018-09-17T01:57:11.740Z,10.10
2018-09-17T02:01:51.771Z,9.90
2018-09-17T02:06:33.900Z,9.80
2018-09-17T02:11:14.308Z,9.80
2018-09-17T02:15:54.123Z,9.90
2018-09-17T02:20:34.225Z,9.90
2018-09-17T02:25:16.164Z,9.80
2018-09-17T02:29:56.101Z,9.70
2018-09-17T02:34:36.013Z,9.60
2018-09-17T02:39:16.984Z,9.40
2018-09-17T02:43:57.185Z,9.30
2018-09-17T02:48:37.420Z,9.40
2018-09-17T02:53:17.920Z,9.40
2018-09-17T02:57:57.959Z,9.40
2018-09-17T03:02:39.069Z,9.40
2018-09-17T03:07:19.095Z,9.30
2018-09-17T03:11:59.351Z,9.30
2018-09-17T03:16:50.509Z,9.40
2018-09-17T03:21:30.827Z,9.40
2018-09-17T03:26:10.895Z,9.40
2018-09-17T03:30:51.052Z,9.40
2018-09-17T03:35:31.168Z,9.30
2018-09-17T03:40:11.552Z,9.20
2018-09-17T03:44:51.868Z,9.10
2018-09-17T03:49:32.584Z,9.00
2018-09-17T03:54:12.419Z,9.00
2018-09-17T03:58:53.569Z,8.90
2018-09-17T04:03:33.772Z,8.80
2018-09-17T04:08:13.746Z,8.80
2018-09-17T04:12:53.936Z,8.80
2018-09-17T04:17:34.760Z,8.80
2018-09-17T04:22:16.322Z,8.80
2018-09-17T04:26:57.182Z,8.80
2018-09-17T04:31:37.830Z,8.60
2018-09-17T04:36:19.222Z,8.50
2018-09-17T04:41:00.347Z,8.40
2018-09-17T04:45:40.380Z,8.40
2018-09-17T04:50:20.408Z,8.40
2018-09-17T04:55:01.225Z,8.30
2018-09-17T04:59:40.982Z,8.30
2018-09-17T05:04:21.031Z,8.20
2018-09-17T05:09:01.084Z,8.20
2018-09-17T05:13:41.369Z,8.20
2018-09-17T05:18:21.949Z,8.20
2018-09-17T05:23:02.203Z,8.20
2018-09-17T05:27:43.670Z,8.10
2018-09-17T05:32:23.977Z,8.10
2018-09-17T05:37:04.062Z,8.10
2018-09-17T05:41:44.465Z,8.10
2018-09-17T05:46:24.963Z,8.20
2018-09-17T05:51:04.876Z,8.30
2018-09-17T05:55:44.828Z,8.30
2018-09-17T06:00:25.309Z,8.50
2018-09-17T06:05:05.334Z,8.70
2018-09-17T06:09:45.828Z,9.00
2018-09-17T06:14:25.881Z,9.20
2018-09-17T06:19:05.777Z,9.60
2018-09-17T06:23:45.973Z,9.90
2018-09-17T06:28:25.854Z,10.30
2018-09-17T06:33:06.221Z,10.70
2018-09-17T06:37:46.942Z,11.20
2018-09-17T06:42:27.446Z,11.50
2018-09-17T06:47:07.653Z,11.90
2018-09-17T06:51:48.100Z,12.20
2018-09-17T06:56:28.184Z,12.60
2018-09-17T07:01:08.448Z,13.10
2018-09-17T07:05:50.154Z,13.50
2018-09-17T07:10:30.388Z,14.00
2018-09-17T07:15:10.887Z,14.60
2018-09-17T07:19:52.230Z,15.20
2018-09-17T07:24:34.631Z,16.10
2018-09-17T07:29:16.791Z,17.80
2018-09-17T07:33:57.153Z,20.00
2018-09-17T07:38:38.755Z,22.00
2018-09-17T07:43:18.772Z,23.60
2018-09-17T07:47:58.608Z,25.10
2018-09-17T07:52:39.503Z,26.10
2018-09-17T07:57:19.917Z,27.00
2018-09-17T08:01:59.960Z,27.80
2018-09-17T08:06:39.787Z,28.50
2018-09-17T08:11:20.172Z,29.30
2018-09-17T08:15:59.719Z,29.80
2018-09-17T08:20:41.361Z,30.60
2018-09-17T08:25:21.770Z,31.00
2018-09-17T08:30:01.794Z,31.30
2018-09-17T08:34:43.306Z,31.90
2018-09-17T08:39:23.493Z,32.30
2018-09-17T08:44:03.964Z,33.00
2018-09-17T08:48:44.417Z,33.40
2018-09-17T08:53:24.532Z,33.50
2018-09-17T08:58:09.521Z,33.80
2018-09-17T09:02:56.644Z,34.20
2018-09-17T09:07:40.784Z,34.60
2018-09-17T09:12:25.914Z,34.60
2018-09-17T09:17:07.240Z,34.70
2018-09-17T09:21:46.865Z,35.30
2018-09-17T09:26:27.280Z,35.80
2018-09-17T09:31:07.392Z,36.60
2018-09-17T09:35:48.145Z,37.10
2018-09-17T09:40:28.300Z,36.90
2018-09-17T09:45:08.100Z,36.50
2018-09-17T09:49:48.607Z,36.50
2018-09-17T09:54:28.484Z,36.50
2018-09-17T09:59:09.068Z,36.50
2018-09-17T10:03:53.140Z,36.70
2018-09-17T10:08:37.220Z,36.90
2018-09-17T10:13:22.354Z,36.90
2018-09-17T10:18:08.050Z,37.10
2018-09-17T10:22:48.500Z,37.20
2018-09-17T10:27:29.179Z,37.40
2018-09-17T10:32:09.485Z,37.10
2018-09-17T10:36:50.749Z,37.10
2018-09-17T10:41:30.679Z,37.20
2018-09-17T10:46:10.420Z,37.40
2018-09-17T10:50:50.883Z,38.40
2018-09-17T10:55:30.788Z,38.90
2018-09-17T11:00:11.889Z,39.00
2018-09-17T11:04:52.277Z,39.40
2018-09-17T11:09:32.419Z,39.10
2018-09-17T11:14:13.883Z,39.30
2018-09-17T11:18:53.608Z,39.50
2018-09-17T11:23:34.066Z,40.20
2018-09-17T11:28:14.090Z,40.00
2018-09-17T11:32:53.833Z,40.00
2018-09-17T11:37:37.306Z,39.70
2018-09-17T11:42:17.989Z,39.60
2018-09-17T11:46:57.902Z,39.40
2018-09-17T11:51:41.800Z,39.60
2018-09-17T11:56:22.128Z,40.40
2018-09-17T12:01:07.168Z,41.00
2018-09-17T12:05:52.619Z,41.20
2018-09-17T12:10:33.859Z,40.40
2018-09-17T12:15:13.851Z,39.80
2018-09-17T12:19:54.093Z,39.70
2018-09-17T12:24:34.128Z,40.00
2018-09-17T12:29:14.877Z,40.10
2018-09-17T12:33:56.599Z,39.90
2018-09-17T12:38:36.268Z,39.80
2018-09-17T12:43:16.112Z,39.50
2018-09-17T12:47:56.262Z,39.90
2018-09-17T12:52:36.088Z,40.00
2018-09-17T12:57:16.948Z,40.00
2018-09-17T13:01:56.844Z,39.90
2018-09-17T13:06:38.245Z,39.80
2018-09-17T13:11:18.666Z,39.70
2018-09-17T13:15:58.418Z,39.50
2018-09-17T13:20:38.792Z,39.20
2018-09-17T13:25:18.668Z,38.80
2018-09-17T13:29:59.381Z,38.70
2018-09-17T13:34:39.673Z,39.00
2018-09-17T13:39:19.730Z,38.90
2018-09-17T13:43:59.950Z,38.80
2018-09-17T13:48:40.153Z,38.50
2018-09-17T13:53:20.178Z,38.20
2018-09-17T13:58:00.520Z,38.40
2018-09-17T14:02:41.053Z,38.00
2018-09-17T14:07:21.141Z,37.60
2018-09-17T14:12:01.630Z,37.20
2018-09-17T14:16:41.707Z,36.20
2018-09-17T14:21:21.640Z,35.30
2018-09-17T14:26:01.732Z,33.70
2018-09-17T14:30:42.128Z,32.80
2018-09-17T14:35:23.137Z,32.00
2018-09-17T14:40:03.571Z,31.60
2018-09-17T14:44:45.035Z,31.10
2018-09-17T14:49:26.017Z,31.00
2018-09-17T14:54:05.981Z,30.60
2018-09-17T14:58:52.525Z,30.00
2018-09-17T15:03:32.940Z,29.80
2018-09-17T15:08:14.318Z,29.60
2018-09-17T15:12:54.672Z,29.20
2018-09-17T15:17:35.985Z,28.80
2018-09-17T15:22:16.697Z,28.50
2018-09-17T15:26:56.809Z,28.30
2018-09-17T15:31:36.790Z,27.90
2018-09-17T15:36:17.129Z,27.60
2018-09-17T15:40:57.125Z,27.40
2018-09-17T15:45:37.111Z,27.10
2018-09-17T15:50:17.285Z,27.00
2018-09-17T15:54:58.313Z,26.80
2018-09-17T15:59:39.218Z,26.60
2018-09-17T16:04:19.616Z,26.30
2018-09-17T16:09:00.437Z,26.30
2018-09-17T16:13:40.332Z,26.30
2018-09-17T16:18:21.120Z,26.20
2018-09-17T16:23:01.017Z,26.10
2018-09-17T16:27:41.525Z,26.00
2018-09-17T16:32:21.539Z,25.70
2018-09-17T16:37:01.520Z,25.60
2018-09-17T16:41:41.852Z,25.40
2018-09-17T16:46:22.773Z,25.20
2018-09-17T16:51:02.631Z,25.10
2018-09-17T16:55:42.595Z,24.90
2018-09-17T17:00:22.984Z,24.80
2018-09-17T17:05:03.115Z,24.70
2018-09-17T17:09:43.104Z,24.60
2018-09-17T17:14:23.396Z,24.30
2018-09-17T17:19:03.495Z,24.10
2018-09-17T17:23:43.662Z,23.80
2018-09-17T17:28:23.979Z,23.50
2018-09-17T17:33:04.693Z,23.20
2018-09-17T17:37:46.923Z,22.90
2018-09-17T17:42:27.280Z,22.60
2018-09-17T17:47:08.269Z,22.30
2018-09-17T17:51:55.984Z,21.90
2018-09-17T17:56:36.645Z,21.50
2018-09-17T18:01:16.641Z,21.30
2018-09-17T18:05:57.172Z,21.10
2018-09-17T18:10:36.848Z,20.80
2018-09-17T18:15:19.374Z,20.50
2018-09-17T18:19:59.119Z,20.30
2018-09-17T18:24:40.913Z,20.10
2018-09-17T18:29:21.753Z,19.80
2018-09-17T18:34:02.052Z,19.60
2018-09-17T18:38:42.820Z,19.40
2018-09-17T18:43:23.007Z,19.40
2018-09-17T18:48:02.808Z,19.20
2018-09-17T18:52:43.421Z,19.20
2018-09-17T18:57:23.373Z,18.90
2018-09-17T19:02:03.591Z,18.70
2018-09-17T19:06:45.567Z,18.50
2018-09-17T19:11:25.659Z,18.40
2018-09-17T19:16:05.769Z,18.40
2018-09-17T19:20:46.993Z,18.30
2018-09-17T19:25:27.123Z,18.10
2018-09-17T19:30:07.756Z,18.10
2018-09-17T19:34:47.981Z,18.00
2018-09-17T19:39:34.193Z,17.90
2018-09-17T19:44:14.289Z,17.70
2018-09-17T19:48:54.308Z,17.50
2018-09-17T19:53:34.445Z,17.30
2018-09-17T19:58:20.443Z,17.20
2018-09-17T20:03:00.849Z,17.10
2018-09-17T20:07:40.868Z,17.00
2018-09-17T20:12:21.197Z,17.00
2018-09-17T20:17:02.073Z,16.90
2018-09-17T20:21:42.230Z,16.60
2018-09-17T20:26:22.629Z,16.50
2018-09-17T20:31:03.410Z,16.40
2018-09-17T20:35:43.676Z,16.20
2018-09-17T20:40:23.618Z,16.10
2018-09-17T20:45:03.652Z,16.00
2018-09-17T20:49:44.580Z,15.90
2018-09-17T20:54:24.669Z,15.90
2018-09-17T20:59:04.872Z,15.80
2018-09-17T21:03:45.482Z,15.70
2018-09-17T21:08:25.885Z,15.60
2018-09-17T21:13:06.002Z,15.40
2018-09-17T21:17:46.725Z,15.30
2018-09-17T21:22:26.868Z,15.20
2018-09-17T21:27:06.863Z,15.10
2018-09-17T21:31:46.840Z,14.90
2018-09-17T21:36:27.429Z,14.90
2018-09-17T21:41:07.449Z,14.90
2018-09-17T21:45:47.469Z,14.80
2018-09-17T21:50:27.712Z,14.70
2018-09-17T21:55:08.516Z,14.60
2018-09-17T21:59:49.281Z,14.60
2018-09-17T22:04:29.198Z,14.60
2018-09-17T22:09:09.802Z,14.60
2018-09-17T22:13:49.752Z,14.60
2018-09-17T22:18:29.861Z,14.40
2018-09-17T22:23:10.545Z,14.30
2018-09-17T22:27:50.609Z,14.20
2018-09-17T22:32:30.598Z,14.10
2018-09-17T22:37:11.412Z,14.10
2018-09-17T22:41:51.426Z,14.00
2018-09-17T22:46:31.453Z,14.00
2018-09-17T22:51:12.191Z,13.90
2018-09-17T22:55:52.241Z,13.90
2018-09-17T23:04:56.747Z,13.80
2018-09-17T23:09:38.500Z,13.60
2018-09-17T23:14:18.309Z,13.70
2018-09-17T23:18:59.082Z,13.60
2018-09-17T23:23:39.772Z,13.50
2018-09-17T23:28:19.479Z,13.40
2018-09-17T23:32:59.577Z,13.30
2018-09-17T23:37:39.334Z,13.30
2018-09-17T23:42:19.679Z,13.30
2018-09-17T23:46:59.588Z,13.30
2018-09-17T23:51:39.752Z,13.30
2018-09-17T23:56:19.612Z,13.20
